Time;durP1;ratioP1;P1;durP2;ratioP2;P2;SDS_P1;SDS_P2;PMS_P1;PMS_P2;Temp;Humidity;BMP_temperature;BMP_pressure;BME280_temperature;BME280_humidity;BME280_pressure;Samples;Min_cycle;Max_cycle;Signal;HPM_P1;HPM_P2
2023/03/24 00:01:18;;;;;;;6.35;3.30;;;13.00;99.90;;;;;;4955434;28;98537;-72
2023/03/24 00:03:47;;;;;;;6.80;3.47;;;13.10;99.90;;;;;;4955420;28;99025;-72
2023/03/24 00:06:14;;;;;;;5.35;3.10;;;13.10;99.90;;;;;;4954655;28;99241;-72
2023/03/24 00:08:42;;;;;;;8.00;3.60;;;13.10;99.90;;;;;;4954884;28;99715;-72
2023/03/24 00:11:11;;;;;;;4.00;3.05;;;13.10;99.90;;;;;;4938005;28;98553;-72
2023/03/24 00:13:38;;;;;;;6.70;3.90;;;13.10;99.90;;;;;;4953500;28;98523;-72
2023/03/24 00:16:08;;;;;;;6.28;2.85;;;13.10;99.90;;;;;;4954824;28;99405;-72
2023/03/24 00:18:36;;;;;;;6.28;3.58;;;13.10;99.90;;;;;;4969570;28;99502;-72
2023/03/24 00:21:05;;;;;;;9.45;4.10;;;13.10;99.90;;;;;;4954798;28;98544;-72
2023/03/24 00:23:33;;;;;;;5.40;3.65;;;13.10;99.90;;;;;;4955460;28;98226;-72
2023/03/24 00:26:07;;;;;;;6.15;3.58;;;13.10;99.90;;;;;;4954718;28;99470;-72
2023/03/24 00:28:36;;;;;;;10.50;4.22;;;13.10;99.90;;;;;;4953473;28;99133;-72
2023/03/24 00:31:05;;;;;;;7.90;4.18;;;13.10;99.90;;;;;;4953231;28;99306;-72
2023/03/24 00:33:34;;;;;;;7.75;3.70;;;13.10;99.90;;;;;;4954880;28;98543;-72
2023/03/24 00:36:06;;;;;;;7.63;3.45;;;13.10;99.90;;;;;;4936625;28;101915;-72
2023/03/24 00:38:35;;;;;;;7.40;3.67;;;13.00;99.90;;;;;;4954622;28;98695;-72
2023/03/24 00:41:02;;;;;;;7.63;3.40;;;13.00;99.90;;;;;;4970032;28;99210;-72
2023/03/24 00:43:29;;;;;;;7.05;3.80;;;13.00;99.90;;;;;;4953713;28;98889;-72
2023/03/24 00:46:00;;;;;;;7.18;3.58;;;12.90;99.90;;;;;;4952946;28;101947;-72
2023/03/24 00:48:28;;;;;;;6.63;3.83;;;12.90;99.90;;;;;;4953286;28;101500;-72
2023/03/24 00:50:56;;;;;;;7.30;4.03;;;12.90;99.90;;;;;;4954828;28;98767;-72
2023/03/24 00:53:28;;;;;;;7.25;3.58;;;12.90;99.90;;;;;;4969493;28;98573;-72
2023/03/24 00:55:57;;;;;;;6.30;3.78;;;12.90;99.90;;;;;;4952304;28;102468;-72
2023/03/24 00:58:24;;;;;;;10.07;3.80;;;12.90;99.90;;;;;;4953269;28;99832;-72
2023/03/24 01:00:55;;;;;;;5.70;3.53;;;12.90;99.90;;;;;;4952968;28;98633;-72
2023/03/24 01:03:26;;;;;;;6.10;3.40;;;12.90;99.90;;;;;;4954450;28;98501;-72
2023/03/24 01:06:01;;;;;;;6.80;4.03;;;12.80;99.90;;;;;;4952503;28;101784;-72
2023/03/24 01:08:30;;;;;;;6.70;4.20;;;12.90;99.90;;;;;;4952443;28;101790;-73
2023/03/24 01:10:59;;;;;;;9.13;3.95;;;12.90;99.90;;;;;;4952880;28;98496;-72
2023/03/24 01:13:28;;;;;;;6.43;3.40;;;12.90;99.90;;;;;;4953450;28;98313;-72
2023/03/24 01:15:56;;;;;;;6.90;3.97;;;12.90;99.90;;;;;;4968591;28;99381;-72
2023/03/24 01:18:23;;;;;;;8.73;3.85;;;12.90;99.90;;;;;;4954001;28;99027;-72
2023/03/24 01:20:52;;;;;;;6.70;3.80;;;12.90;99.90;;;;;;4953228;28;99187;-72
2023/03/24 01:23:22;;;;;;;5.88;3.17;;;12.90;99.90;;;;;;4968984;28;98680;-72
2023/03/24 01:25:50;;;;;;;7.28;3.75;;;12.90;99.90;;;;;;4953850;28;99258;-72
2023/03/24 01:28:23;;;;;;;5.35;3.95;;;12.90;99.90;;;;;;4953837;28;99348;-72
2023/03/24 01:30:52;;;;;;;6.00;3.70;;;12.90;99.90;;;;;;4968719;28;98537;-72
2023/03/24 01:33:20;;;;;;;4.78;3.30;;;12.90;99.90;;;;;;4953777;28;98524;-72
2023/03/24 01:35:47;;;;;;;5.63;3.40;;;12.90;99.90;;;;;;4968274;28;101763;-72
2023/03/24 01:38:14;;;;;;;3.80;3.50;;;13.00;99.90;;;;;;4952440;28;101997;-72
2023/03/24 01:40:45;;;;;;;6.05;3.67;;;12.90;99.90;;;;;;4952446;28;98543;-72
2023/03/24 01:43:38;;;;;;;4.80;3.15;;;13.00;99.90;;;;;;4952737;28;98605;-72
2023/03/24 01:46:16;;;;;;;4.28;3.42;;;13.00;99.90;;;;;;4947749;28;102621;-72
2023/03/24 01:49:00;;;;;;;6.50;3.60;;;13.00;99.90;;;;;;4952020;28;99599;-72
2023/03/24 01:51:47;;;;;;;;;;;13.00;99.90;;;;;;4952903;28;98622;-72
2023/03/24 01:54:35;;;;;;;6.57;3.92;;;12.80;99.90;;;;;;4953535;28;99029;-72
2023/03/24 01:57:13;;;;;;;5.97;3.63;;;12.90;99.90;;;;;;4951875;28;100519;-72
2023/03/24 01:59:47;;;;;;;5.82;3.72;;;12.80;99.90;;;;;;4952173;28;101491;-72
2023/03/24 02:02:43;;;;;;;5.63;3.47;;;12.90;99.90;;;;;;4953510;28;99122;-72
2023/03/24 02:05:13;;;;;;;6.20;3.53;;;12.80;99.90;;;;;;4952517;28;97925;-72
2023/03/24 02:07:51;;;;;;;5.20;3.45;;;12.80;99.90;;;;;;4935933;28;100204;-72
2023/03/24 02:10:21;;;;;;;4.95;3.38;;;12.90;99.90;;;;;;4951827;28;101313;-72
2023/03/24 02:12:48;;;;;;;6.22;4.00;;;12.90;99.90;;;;;;4951541;28;99229;-72
2023/03/24 02:15:18;;;;;;;6.50;3.60;;;12.80;99.90;;;;;;4952263;28;98934;-72
2023/03/24 02:17:53;;;;;;;3.90;3.03;;;12.90;99.90;;;;;;4952049;28;101821;-72
2023/03/24 02:20:42;;;;;;;4.63;3.35;;;13.00;99.90;;;;;;4951134;28;101248;-72
2023/03/24 02:23:16;;;;;;;6.47;3.78;;;13.00;99.90;;;;;;4951969;28;98722;-72
2023/03/24 02:26:27;;;;;;;5.78;3.40;;;12.90;99.90;;;;;;4951952;28;98537;-72
2023/03/24 02:29:02;;;;;;;4.93;3.50;;;13.00;99.90;;;;;;4923820;28;102073;-72
2023/03/24 02:31:53;;;;;;;6.00;4.20;;;12.90;99.90;;;;;;4951892;28;100052;-72
2023/03/24 02:34:32;;;;;;;6.53;4.03;;;13.00;99.90;;;;;;4951977;28;98649;-72
2023/03/24 02:37:26;;;;;;;5.93;3.70;;;13.10;99.90;;;;;;4951587;28;98574;-72
2023/03/24 02:40:03;;;;;;;4.40;3.75;;;13.10;99.90;;;;;;4950711;28;102438;-72
2023/03/24 02:42:53;;;;;;;4.68;3.72;;;13.00;99.90;;;;;;4952820;28;99657;-72
2023/03/24 02:45:29;;;;;;;6.57;3.85;;;13.10;99.90;;;;;;4968179;28;99210;-72
2023/03/24 02:48:12;;;;;;;6.88;3.65;;;13.00;99.90;;;;;;4967643;28;98522;-72
2023/03/24 02:50:50;;;;;;;4.72;3.80;;;13.10;99.90;;;;;;4951205;28;101533;-72
2023/03/24 02:53:34;;;;;;;6.05;4.38;;;13.10;99.90;;;;;;4967632;28;101297;-72
2023/03/24 02:56:28;;;;;;;4.70;3.67;;;13.10;99.90;;;;;;4951820;28;98654;-72
2023/03/24 02:59:06;;;;;;;5.90;3.88;;;13.00;99.90;;;;;;4954520;28;97813;-72
2023/03/24 03:01:57;;;;;;;4.78;3.97;;;13.10;99.90;;;;;;4954881;28;101571;-72
2023/03/24 03:04:44;;;;;;;4.20;3.67;;;13.10;99.90;;;;;;4954637;28;101579;-72
2023/03/24 03:07:15;;;;;;;5.35;3.90;;;13.10;99.90;;;;;;4970611;28;99622;-72
2023/03/24 03:09:58;;;;;;;5.43;3.60;;;13.10;99.90;;;;;;4955685;28;99309;-72
2023/03/24 03:12:29;;;;;;;6.20;3.57;;;13.10;99.90;;;;;;4954474;28;101632;-72
2023/03/24 03:15:12;;;;;;;4.63;3.45;;;13.10;99.90;;;;;;4954305;28;101745;-72
2023/03/24 03:17:52;;;;;;;7.28;4.70;;;13.10;99.90;;;;;;4971019;28;98584;-72
2023/03/24 03:20:24;;;;;;;5.50;3.95;;;13.20;99.90;;;;;;4970588;28;98591;-72
2023/03/24 03:22:59;;;;;;;5.95;4.07;;;13.20;99.90;;;;;;4954189;28;101761;-72
2023/03/24 03:25:34;;;;;;;5.25;4.03;;;13.20;99.90;;;;;;4954578;28;101948;-72
2023/03/24 03:28:03;;;;;;;4.45;4.10;;;13.20;99.90;;;;;;4970592;28;98547;-72
2023/03/24 03:30:36;;;;;;;5.50;3.95;;;13.20;99.90;;;;;;4956060;28;99026;-72
2023/03/24 03:33:09;;;;;;;4.37;3.80;;;13.20;99.90;;;;;;4969964;28;102519;-72
2023/03/24 03:35:42;;;;;;;3.85;3.45;;;13.20;99.90;;;;;;4955773;28;99774;-72
2023/03/24 03:38:19;;;;;;;5.63;4.80;;;13.20;99.90;;;;;;4970845;28;98572;-72
2023/03/24 03:40:58;;;;;;;6.15;4.05;;;13.30;99.90;;;;;;4954507;28;98597;-72
2023/03/24 03:43:32;;;;;;;4.15;3.85;;;13.30;99.90;;;;;;4954012;28;101649;-72
2023/03/24 03:46:00;;;;;;;4.00;3.40;;;13.30;99.90;;;;;;4953635;28;100107;-72
2023/03/24 03:48:35;;;;;;;5.07;3.78;;;13.30;99.90;;;;;;4939151;28;98669;-72
2023/03/24 03:51:02;;;;;;;3.55;2.97;;;13.20;99.90;;;;;;4955445;28;97805;-72
2023/03/24 03:53:42;;;;;;;3.70;3.35;;;13.20;99.90;;;;;;4970022;28;101681;-72
2023/03/24 03:56:10;;;;;;;5.00;4.60;;;13.20;99.90;;;;;;4953668;28;101449;-72
2023/03/24 03:58:47;;;;;;;5.85;3.83;;;13.20;99.90;;;;;;4953766;28;99344;-72
2023/03/24 04:01:18;;;;;;;4.72;4.13;;;13.20;99.90;;;;;;4955195;28;98897;-72
2023/03/24 04:04:32;;;;;;;6.05;4.63;;;13.30;99.90;;;;;;4953111;28;98755;-72
2023/03/24 04:07:39;;;;;;;4.10;3.78;;;13.20;99.90;;;;;;4949275;28;98850;-72
2023/03/24 04:11:04;;;;;;;2.67;2.47;;;13.10;99.90;;;;;;4954020;28;98601;-72
2023/03/24 04:13:55;;;;;;;2.92;2.30;;;13.00;99.90;;;;;;4954107;28;98560;-72
2023/03/24 04:16:52;;;;;;;2.10;1.90;;;13.00;99.90;;;;;;4955024;28;99324;-72
2023/03/24 04:19:48;;;;;;;1.95;1.80;;;12.90;99.90;;;;;;4952768;28;101430;-72
2023/03/24 04:22:38;;;;;;;3.75;2.20;;;12.80;99.90;;;;;;4954998;28;98996;-72
2023/03/24 04:25:19;;;;;;;3.45;2.08;;;12.80;99.90;;;;;;4968392;28;98688;-72
2023/03/24 04:28:13;;;;;;;3.40;2.17;;;12.80;99.90;;;;;;4969261;28;102908;-72
2023/03/24 04:30:44;;;;;;;3.03;2.00;;;12.70;99.90;;;;;;4954522;28;99778;-72
2023/03/24 04:33:27;;;;;;;5.20;1.77;;;12.70;99.90;;;;;;4969939;28;98714;-72
2023/03/24 04:36:05;;;;;;;3.92;1.77;;;12.60;99.90;;;;;;4953903;28;99180;-72
2023/03/24 04:38:56;;;;;;;5.22;2.05;;;12.70;99.90;;;;;;4969479;28;100343;-72
2023/03/24 04:41:36;;;;;;;4.40;2.00;;;12.60;99.90;;;;;;4969448;28;100303;-72
2023/03/24 04:44:11;;;;;;;2.70;1.90;;;12.60;99.90;;;;;;4938215;28;98552;-72
2023/03/24 04:46:55;;;;;;;3.30;1.55;;;12.50;99.90;;;;;;4953778;28;97827;-72
2023/03/24 04:49:25;;;;;;;4.78;1.80;;;12.50;99.90;;;;;;4968822;28;101588;-72
2023/03/24 04:51:53;;;;;;;4.38;1.83;;;12.50;99.90;;;;;;4953049;28;101297;-72
2023/03/24 04:54:26;;;;;;;3.70;1.80;;;12.50;99.90;;;;;;4969247;28;99307;-72
2023/03/24 04:57:01;;;;;;;4.85;1.80;;;12.50;99.90;;;;;;4953375;28;99162;-72
2023/03/24 04:59:36;;;;;;;5.32;1.73;;;12.40;99.90;;;;;;4952935;28;101828;-72
2023/03/24 05:02:05;;;;;;;5.60;1.80;;;12.30;99.90;;;;;;4952781;28;101549;-72
2023/03/24 05:04:43;;;;;;;3.05;1.42;;;12.30;99.90;;;;;;4953448;28;99024;-72
2023/03/24 05:07:21;;;;;;;3.42;1.60;;;12.20;99.90;;;;;;4952782;28;98581;-72
2023/03/24 05:09:51;;;;;;;6.00;2.00;;;12.20;99.90;;;;;;4937007;28;101484;-72
2023/03/24 05:12:18;;;;;;;6.50;1.90;;;12.10;99.90;;;;;;4952549;28;101590;-72
2023/03/24 05:15:09;;;;;;;4.38;2.08;;;12.10;99.90;;;;;;4956272;28;98665;-72
2023/03/24 05:17:37;;;;;;;7.20;1.92;;;12.00;99.90;;;;;;4952994;28;99162;-72
2023/03/24 05:20:10;;;;;;;4.60;1.60;;;12.00;99.90;;;;;;4952580;28;100034;-72
2023/03/24 05:22:40;;;;;;;5.85;1.73;;;12.00;99.90;;;;;;4936662;28;101785;-72
2023/03/24 05:25:08;;;;;;;8.23;1.77;;;11.90;99.90;;;;;;4952867;28;98697;-72
2023/03/24 05:27:35;;;;;;;6.55;2.05;;;12.00;99.90;;;;;;4952779;28;99311;-72
2023/03/24 05:30:14;;;;;;;6.82;2.00;;;12.00;99.90;;;;;;4952180;28;100403;-72
2023/03/24 05:32:42;;;;;;;7.05;1.73;;;12.00;99.90;;;;;;4968621;28;100064;-72
2023/03/24 05:35:11;;;;;;;8.20;2.55;;;12.00;99.90;;;;;;4952291;28;98539;-72
2023/03/24 05:37:40;;;;;;;7.00;1.95;;;12.00;99.90;;;;;;4953003;28;97902;-72
2023/03/24 05:40:08;;;;;;;5.00;1.90;;;11.90;99.90;;;;;;4936022;28;101875;-72
2023/03/24 05:42:51;;;;;;;6.82;2.00;;;11.90;99.90;;;;;;4952246;28;101102;-72
2023/03/24 05:45:19;;;;;;;4.82;2.00;;;11.90;99.90;;;;;;4967956;28;99264;-72
2023/03/24 05:47:47;;;;;;;9.70;2.08;;;11.90;99.90;;;;;;4952279;28;98554;-72
2023/03/24 05:50:18;;;;;;;7.20;2.30;;;11.90;99.90;;;;;;4951842;28;99319;-72
2023/03/24 05:52:45;;;;;;;9.90;2.47;;;11.80;99.90;;;;;;4951977;28;101482;-72
2023/03/24 05:55:47;;;;;;;11.52;3.05;;;11.80;99.90;;;;;;4948041;28;98633;-72
2023/03/24 05:58:34;;;;;;;7.78;2.83;;;11.80;99.90;;;;;;4965993;28;99238;-72
2023/03/24 06:01:06;;;;;;;11.35;2.63;;;11.80;99.90;;;;;;4951959;28;101583;-72
2023/03/24 06:03:38;;;;;;;5.47;2.45;;;11.80;99.90;;;;;;4952067;28;101087;-72
2023/03/24 06:06:15;;;;;;;9.13;2.20;;;11.80;99.90;;;;;;4952279;28;98656;-72
2023/03/24 06:08:43;;;;;;;12.48;2.90;;;11.80;99.90;;;;;;4936784;28;98622;-72
2023/03/24 06:11:12;;;;;;;9.45;3.20;;;11.80;99.90;;;;;;4951381;28;102208;-72
2023/03/24 06:13:48;;;;;;;8.50;3.00;;;11.80;99.90;;;;;;4968127;28;101236;-72
2023/03/24 06:16:17;;;;;;;6.10;2.78;;;11.90;99.90;;;;;;4952061;28;98525;-72
2023/03/24 06:18:53;;;;;;;10.13;2.67;;;11.80;99.90;;;;;;4951815;28;98597;-72
2023/03/24 06:21:40;;;;;;;11.32;2.90;;;11.80;99.90;;;;;;4950958;28;100064;-72
2023/03/24 06:24:07;;;;;;;10.35;2.38;;;11.90;99.90;;;;;;4951622;28;101530;-72
2023/03/24 06:26:34;;;;;;;5.43;2.15;;;11.90;99.90;;;;;;4951760;28;98502;-72
2023/03/24 06:29:02;;;;;;;10.65;2.47;;;11.90;99.90;;;;;;4952155;28;97861;-72
2023/03/24 06:31:34;;;;;;;4.15;1.83;;;12.00;99.90;;;;;;4950999;28;101682;-72
2023/03/24 06:34:03;;;;;;;9.70;2.17;;;12.10;99.90;;;;;;4950812;28;101821;-72
2023/03/24 06:36:30;;;;;;;10.38;2.08;;;12.10;99.90;;;;;;4951669;28;99266;-72
2023/03/24 06:38:56;;;;;;;5.00;1.48;;;12.20;99.90;;;;;;4951761;28;98606;-72
2023/03/24 06:41:25;;;;;;;6.93;2.10;;;12.30;99.90;;;;;;4951124;28;101733;-72
2023/03/24 06:43:56;;;;;;;7.93;2.08;;;12.30;99.90;;;;;;4951275;28;100881;-72
2023/03/24 06:46:24;;;;;;;6.55;1.80;;;12.40;99.90;;;;;;4951615;28;99142;-72
2023/03/24 06:48:51;;;;;;;9.50;2.17;;;12.40;99.90;;;;;;4951518;28;98592;-72
2023/03/24 06:51:18;;;;;;;6.75;2.50;;;12.40;99.90;;;;;;4951302;28;101300;-72
2023/03/24 06:53:45;;;;;;;10.40;2.72;;;12.40;99.90;;;;;;4951474;28;101575;-72
2023/03/24 06:56:18;;;;;;;6.38;2.53;;;12.40;99.90;;;;;;4951523;28;98538;-72
2023/03/24 06:58:51;;;;;;;6.05;2.40;;;12.50;99.90;;;;;;4936008;28;98643;-72
2023/03/24 07:01:27;;;;;;;7.88;1.80;;;12.50;99.90;;;;;;4935482;28;102209;-72
2023/03/24 07:03:57;;;;;;;6.32;2.40;;;12.50;99.90;;;;;;4967482;28;102003;-72
2023/03/24 07:06:51;;;;;;;6.35;2.13;;;12.50;99.90;;;;;;4951415;28;98661;-72
2023/03/24 07:09:23;;;;;;;10.57;2.13;;;12.50;99.90;;;;;;4951393;28;98591;-72
2023/03/24 07:11:50;;;;;;;8.10;2.53;;;12.50;99.90;;;;;;4934730;28;101985;-72
2023/03/24 07:14:20;;;;;;;7.28;2.20;;;12.60;99.90;;;;;;4950897;28;101667;-72
2023/03/24 07:16:48;;;;;;;8.13;2.42;;;12.60;99.90;;;;;;4951668;28;98617;-72
2023/03/24 07:19:38;;;;;;;6.97;2.13;;;12.70;99.90;;;;;;4951186;28;97786;-72
2023/03/24 07:22:32;;;;;;;10.48;2.70;;;12.80;99.90;;;;;;4940245;28;99133;-72
2023/03/24 07:25:22;;;;;;;7.35;2.10;;;12.80;99.90;;;;;;4941172;28;99079;-72
2023/03/24 07:27:56;;;;;;;9.98;2.33;;;12.90;99.90;;;;;;4950878;28;99345;-72
2023/03/24 07:30:24;;;;;;;7.15;2.10;;;13.00;99.90;;;;;;4951078;28;98676;-72
2023/03/24 07:33:05;;;;;;;6.55;2.15;;;13.00;99.90;;;;;;4951054;28;101861;-72
2023/03/24 07:35:32;;;;;;;8.70;2.50;;;13.10;99.90;;;;;;4951923;28;98970;-72
2023/03/24 07:38:00;;;;;;;8.60;2.67;;;13.10;99.90;;;;;;4934804;28;98583;-72
2023/03/24 07:40:29;;;;;;;12.65;2.33;;;13.20;99.90;;;;;;4950954;28;98558;-72
2023/03/24 07:42:59;;;;;;;8.45;2.13;;;13.20;99.90;;;;;;4950684;28;101944;-72
2023/03/24 07:45:53;;;;;;;8.52;2.20;;;13.20;99.90;;;;;;4954153;28;101469;-72
2023/03/24 07:48:20;;;;;;;7.13;2.28;;;13.30;99.90;;;;;;4954317;28;98609;-72
2023/03/24 07:50:47;;;;;;;11.50;2.38;;;13.40;99.90;;;;;;4953841;28;98505;-72
2023/03/24 07:53:49;;;;;;;9.63;2.83;;;13.50;99.90;;;;;;4946852;28;100977;-72
2023/03/24 07:56:31;;;;;;;10.15;2.42;;;13.60;99.90;;;;;;4953747;28;101951;-72
2023/03/24 07:59:00;;;;;;;14.68;2.90;;;13.70;99.90;;;;;;4953986;28;98657;-72
2023/03/24 08:01:31;;;;;;;13.65;2.60;;;13.70;99.90;;;;;;4970348;28;98617;-72
2023/03/24 08:04:02;;;;;;;9.88;2.55;;;13.70;99.90;;;;;;4937924;28;101993;-72
2023/03/24 08:06:48;;;;;;;14.48;3.60;;;13.70;99.90;;;;;;4953808;28;98530;-72
2023/03/24 08:09:15;;;;;;;15.82;3.45;;;13.80;99.90;;;;;;4955177;28;98446;-72
2023/03/24 08:11:42;;;;;;;11.70;2.60;;;13.90;99.90;;;;;;4953948;28;97898;-72
2023/03/24 08:14:09;;;;;;;8.68;2.75;;;14.10;99.90;;;;;;4955060;28;99404;-72
2023/03/24 08:16:39;;;;;;;9.52;2.60;;;14.20;99.90;;;;;;4953371;28;101839;-72
2023/03/24 08:19:06;;;;;;;6.22;2.40;;;14.30;99.90;;;;;;4969933;28;99364;-72
2023/03/24 08:21:33;;;;;;;17.58;3.15;;;14.40;99.90;;;;;;4954879;28;99050;-72
2023/03/24 08:24:00;;;;;;;12.20;3.00;;;14.30;99.90;;;;;;4954876;28;99221;-72
2023/03/24 08:26:28;;;;;;;15.73;3.03;;;14.40;99.90;;;;;;4954863;28;98982;-72
2023/03/24 08:28:55;;;;;;;9.57;2.53;;;14.50;99.90;;;;;;4937554;28;98583;-72
2023/03/24 08:31:22;;;;;;;16.08;2.85;;;14.50;99.90;;;;;;4954924;28;98624;-72
2023/03/24 08:33:49;;;;;;;13.80;3.60;;;14.60;99.90;;;;;;4954291;28;99326;-72
2023/03/24 08:36:16;;;;;;;13.63;3.20;;;14.50;99.90;;;;;;4969836;28;98970;-72
2023/03/24 08:38:43;;;;;;;15.20;3.65;;;14.70;99.90;;;;;;4954034;28;98436;-72
2023/03/24 08:41:10;;;;;;;12.18;2.67;;;14.90;99.90;;;;;;4954850;28;98530;-73
2023/03/24 08:43:38;;;;;;;11.48;3.42;;;15.00;99.90;;;;;;4952405;28;102794;-72
2023/03/24 08:46:07;;;;;;;12.18;2.65;;;15.00;99.90;;;;;;4954330;28;99692;-72
2023/03/24 08:48:38;;;;;;;13.93;2.92;;;15.00;99.90;;;;;;4969736;28;98666;-72
2023/03/24 08:51:16;;;;;;;14.48;3.05;;;15.00;99.90;;;;;;4954361;28;98509;-72
2023/03/24 08:53:43;;;;;;;14.48;3.22;;;15.20;99.90;;;;;;4968869;28;101776;-72
2023/03/24 08:56:10;;;;;;;11.95;3.13;;;15.20;99.90;;;;;;4951881;28;105182;-73
2023/03/24 08:58:37;;;;;;;18.52;3.08;;;15.30;99.90;;;;;;4969835;28;98602;-73
2023/03/24 09:01:04;;;;;;;14.65;2.60;;;15.40;99.90;;;;;;4953652;28;97892;-73
2023/03/24 09:03:31;;;;;;;11.85;3.30;;;15.40;99.90;;;;;;4953995;28;99268;-73
2023/03/24 09:05:58;;;;;;;11.40;3.15;;;15.40;99.90;;;;;;4952905;28;101561;-74
2023/03/24 09:08:26;;;;;;;16.05;3.40;;;15.30;99.90;;;;;;4969094;28;99247;-74
2023/03/24 09:10:53;;;;;;;9.57;2.40;;;15.30;99.90;;;;;;4952908;28;98673;-74
2023/03/24 09:13:20;;;;;;;14.07;2.60;;;15.30;99.90;;;;;;4953013;28;99379;-74
2023/03/24 09:15:53;;;;;;;9.18;2.35;;;15.10;99.90;;;;;;4936356;28;99055;-74
2023/03/24 09:18:20;;;;;;;13.07;2.88;;;15.10;99.90;;;;;;4954414;28;98490;-74
2023/03/24 09:20:48;;;;;;;14.32;3.08;;;14.90;99.90;;;;;;4953948;28;98622;-74
2023/03/24 09:23:15;;;;;;;11.95;2.78;;;14.90;99.90;;;;;;4952559;28;101892;-74
2023/03/24 09:25:43;;;;;;;11.80;3.08;;;14.70;99.90;;;;;;4954055;28;99271;-74
2023/03/24 09:28:10;;;;;;;10.20;2.83;;;14.60;99.90;;;;;;4952924;28;98596;-74
2023/03/24 09:30:37;;;;;;;9.95;2.78;;;14.40;99.90;;;;;;4952762;28;98878;-74
2023/03/24 09:33:04;;;;;;;12.25;3.05;;;14.30;99.90;;;;;;4951637;28;102587;-74
2023/03/24 09:35:31;;;;;;;14.30;3.00;;;14.10;99.90;;;;;;4952610;28;100377;-74
2023/03/24 09:37:58;;;;;;;8.43;2.55;;;14.10;99.90;;;;;;4953954;28;98506;-74
2023/03/24 09:40:27;;;;;;;12.10;2.65;;;14.10;99.90;;;;;;4952300;28;98622;-74
2023/03/24 09:43:17;;;;;;;8.65;2.53;;;14.20;99.90;;;;;;4953153;28;99593;-74
2023/03/24 09:45:50;;;;;;;8.57;2.85;;;14.30;99.90;;;;;;4953792;28;99001;-74
2023/03/24 09:48:30;;;;;;;14.20;3.00;;;14.40;99.90;;;;;;4954286;28;98927;-74
2023/03/24 09:51:14;;;;;;;12.00;2.50;;;14.50;99.90;;;;;;4952630;28;97908;-74
2023/03/24 09:53:51;;;;;;;9.63;2.50;;;14.50;99.90;;;;;;4953635;28;99322;-74
2023/03/24 09:56:21;;;;;;;9.73;2.40;;;14.60;99.90;;;;;;4953450;28;98970;-73
2023/03/24 09:59:14;;;;;;;11.63;2.58;;;14.70;99.90;;;;;;4968130;28;99348;-74
2023/03/24 10:01:41;;;;;;;9.85;3.10;;;14.90;99.90;;;;;;4952336;28;98476;-74
2023/03/24 10:04:17;;;;;;;7.80;2.22;;;14.90;99.90;;;;;;4951774;28;100185;-74
2023/03/24 10:06:45;;;;;;;9.00;2.90;;;15.20;99.90;;;;;;4953221;28;98922;-74
2023/03/24 10:09:28;;;;;;;10.18;2.22;;;15.30;99.90;;;;;;4952411;28;98599;-74
2023/03/24 10:12:03;;;;;;;8.07;2.13;;;15.40;99.90;;;;;;4952044;28;98565;-74
2023/03/24 10:14:44;;;;;;;11.50;3.33;;;15.70;99.90;;;;;;4951804;28;101855;-74
2023/03/24 10:17:14;;;;;;;11.82;2.40;;;16.00;99.90;;;;;;4951854;28;101762;-74
2023/03/24 10:20:06;;;;;;;9.25;2.72;;;16.10;99.90;;;;;;4968629;28;98608;-74
2023/03/24 10:22:45;;;;;;;5.78;2.20;;;16.30;99.90;;;;;;4951755;28;98533;-74
2023/03/24 10:25:29;;;;;;;10.38;2.22;;;16.40;99.90;;;;;;4935149;28;102492;-74
2023/03/24 10:28:00;;;;;;;10.95;2.92;;;16.60;99.90;;;;;;4952958;28;99802;-74
2023/03/24 10:30:35;;;;;;;10.05;2.65;;;16.80;99.90;;;;;;4953418;28;98735;-74
2023/03/24 10:33:03;;;;;;;11.68;3.10;;;16.90;99.80;;;;;;4953002;28;98431;-74
2023/03/24 10:35:37;;;;;;;11.27;2.63;;;16.90;99.60;;;;;;4952931;28;99261;-74
2023/03/24 10:38:18;;;;;;;11.45;2.63;;;17.00;99.80;;;;;;4952797;28;99144;-74
2023/03/24 10:40:46;;;;;;;10.88;2.85;;;16.90;99.60;;;;;;4968377;28;98576;-74
2023/03/24 10:43:17;;;;;;;10.93;2.72;;;16.80;99.70;;;;;;4953446;28;97930;-74
2023/03/24 10:45:48;;;;;;;10.25;2.75;;;16.90;99.90;;;;;;4951270;28;101751;-74
2023/03/24 10:48:33;;;;;;;10.82;2.83;;;16.90;99.80;;;;;;4952756;28;99059;-74
2023/03/24 10:51:00;;;;;;;7.90;2.83;;;16.80;99.80;;;;;;4952866;28;99813;-74
2023/03/24 10:53:27;;;;;;;10.40;2.85;;;16.80;99.90;;;;;;4953203;28;98542;-74
2023/03/24 10:55:53;;;;;;;11.07;2.70;;;16.60;98.50;;;;;;4967197;28;99384;-74
2023/03/24 10:58:40;;;;;;;6.07;2.28;;;16.60;98.60;;;;;;4952590;28;98983;-74
2023/03/24 11:01:29;;;;;;;9.85;2.33;;;16.60;98.70;;;;;;4952951;28;98535;-74
2023/03/24 11:04:03;;;;;;;15.55;2.70;;;16.50;98.50;;;;;;4952787;28;98478;-74
2023/03/24 11:06:31;;;;;;;9.60;2.45;;;16.30;98.40;;;;;;4952302;28;99278;-74
2023/03/24 11:09:20;;;;;;;9.70;2.20;;;16.20;98.60;;;;;;4952606;28;99081;-74
2023/03/24 11:11:48;;;;;;;6.18;1.70;;;16.20;97.60;;;;;;4952941;28;98455;-74
2023/03/24 11:14:25;;;;;;;11.13;2.38;;;16.10;97.80;;;;;;4951192;28;98612;-74
2023/03/24 11:17:22;;;;;;;9.95;2.53;;;16.20;97.70;;;;;;4967050;28;99981;-74
2023/03/24 11:19:54;;;;;;;6.68;1.90;;;16.20;98.20;;;;;;4940596;28;99738;-73
2023/03/24 11:22:23;;;;;;;9.47;2.10;;;16.30;97.80;;;;;;4971402;28;98716;-74
2023/03/24 11:24:54;;;;;;;8.68;1.90;;;16.50;97.60;;;;;;4956084;28;98562;-74
2023/03/24 11:27:22;;;;;;;6.63;1.60;;;16.50;96.20;;;;;;4970573;28;99258;-74
2023/03/24 11:29:53;;;;;;;6.90;1.75;;;16.50;96.00;;;;;;4970607;28;100741;-74
2023/03/24 11:32:28;;;;;;;11.77;2.45;;;16.60;95.90;;;;;;4954415;28;98596;-74
2023/03/24 11:35:12;;;;;;;9.50;2.25;;;16.70;96.40;;;;;;4971386;28;97903;-74
2023/03/24 11:37:40;;;;;;;9.77;1.92;;;16.70;96.30;;;;;;4955949;28;99220;-74
2023/03/24 11:40:14;;;;;;;8.07;1.67;;;16.80;96.80;;;;;;4955328;28;98940;-74
2023/03/24 11:42:44;;;;;;;10.13;1.98;;;16.80;95.50;;;;;;4970682;28;99282;-74
2023/03/24 11:45:38;;;;;;;4.60;1.50;;;16.80;95.40;;;;;;4970591;28;98568;-74
2023/03/24 11:48:38;;;;;;;7.22;2.20;;;16.80;95.10;;;;;;4953453;28;102117;-74
2023/03/24 11:51:11;;;;;;;6.53;1.45;;;16.70;95.60;;;;;;4953485;28;101518;-74
2023/03/24 11:53:49;;;;;;;9.18;2.25;;;16.60;95.90;;;;;;4955952;28;98574;-74
2023/03/24 11:56:24;;;;;;;5.75;1.35;;;16.60;95.90;;;;;;4955608;28;98527;-74
2023/03/24 11:59:13;;;;;;;6.60;1.55;;;16.60;96.50;;;;;;4953864;28;101896;-74
2023/03/24 12:01:55;;;;;;;7.90;1.73;;;16.70;96.40;;;;;;4955675;28;99053;-74
2023/03/24 12:04:32;;;;;;;6.88;1.77;;;16.80;96.40;;;;;;4953940;28;98562;-74
2023/03/24 12:07:27;;;;;;;9.52;2.42;;;16.90;96.50;;;;;;4955367;28;98521;-74
2023/03/24 12:09:54;;;;;;;9.52;2.13;;;17.00;96.90;;;;;;4953384;28;102504;-74
2023/03/24 12:12:50;;;;;;;8.18;1.92;;;17.20;97.00;;;;;;4953447;28;102304;-74
2023/03/24 12:16:14;;;;;;;7.13;2.08;;;17.50;96.80;;;;;;4955483;28;98460;-74
2023/03/24 12:18:47;;;;;;;7.32;2.30;;;17.70;96.50;;;;;;4878748;28;99153;-74
2023/03/24 12:21:40;;;;;;;12.35;2.20;;;17.80;96.80;;;;;;4894386;28;99433;-74
2023/03/24 12:24:22;;;;;;;10.47;2.23;;;18.10;96.60;;;;;;4943496;28;99298;-74
2023/03/24 12:26:53;;;;;;;9.90;2.33;;;18.20;96.70;;;;;;4955492;28;98588;-74
2023/03/24 12:29:36;;;;;;;10.48;1.85;;;18.30;96.80;;;;;;4955309;28;97756;-74
2023/03/24 12:32:28;;;;;;;7.25;2.17;;;18.40;95.60;;;;;;4968928;28;100352;-74
2023/03/24 12:35:38;;;;;;;7.97;2.03;;;18.30;95.80;;;;;;4954463;28;99111;-74
2023/03/24 12:38:14;;;;;;;6.97;1.83;;;18.20;94.90;;;;;;4921260;28;99483;-74
2023/03/24 12:41:22;;;;;;;9.52;2.53;;;18.20;95.90;;;;;;4955093;28;98418;-74
2023/03/24 12:44:15;;;;;;;7.70;2.00;;;18.30;95.60;;;;;;4953096;28;102173;-74
2023/03/24 12:47:09;;;;;;;7.95;2.03;;;18.10;95.10;;;;;;4953011;28;103371;-74
2023/03/24 12:50:00;;;;;;;9.57;1.80;;;17.90;95.20;;;;;;4955054;28;98522;-74
2023/03/24 12:52:39;;;;;;;7.40;1.88;;;17.80;95.10;;;;;;4953087;28;98608;-74
2023/03/24 12:55:13;;;;;;;5.00;1.90;;;17.70;95.10;;;;;;4952742;28;102066;-74
2023/03/24 12:57:47;;;;;;;6.53;1.80;;;17.50;95.10;;;;;;4953232;28;101733;-74
2023/03/24 13:00:19;;;;;;;;;;;17.30;95.20;;;;;;4937561;28;98494;-74
2023/03/24 13:03:13;;;;;;;7.90;1.67;;;17.30;94.60;;;;;;4970674;28;98586;-74
2023/03/24 13:05:52;;;;;;;9.17;2.43;;;17.70;94.70;;;;;;4954027;28;99975;-74
2023/03/24 13:08:28;;;;;;;6.13;1.80;;;17.90;95.10;;;;;;4952802;28;101334;-74
2023/03/24 13:11:04;;;;;;;6.90;2.00;;;18.00;94.30;;;;;;4954677;28;98450;-74
2023/03/24 13:13:36;;;;;;;6.15;1.92;;;17.90;93.40;;;;;;4954380;28;99341;-74
2023/03/24 13:16:27;;;;;;;9.27;2.13;;;17.70;92.60;;;;;;4952563;28;101797;-74
2023/03/24 13:18:58;;;;;;;8.27;2.10;;;17.40;92.40;;;;;;4954188;28;99097;-74
2023/03/24 13:21:27;;;;;;;8.10;1.90;;;17.30;93.00;;;;;;4968866;28;98694;-74
2023/03/24 13:24:09;;;;;;;6.78;1.80;;;17.10;93.10;;;;;;4954352;28;97858;-74
2023/03/24 13:26:54;;;;;;;9.70;2.53;;;17.10;93.40;;;;;;4954003;28;99450;-74